Weather at Health One Mercy Hospital Heliport

Public forecast

Using degrees Fahrenheit for public forecast. Weather courtesy of forecast.io.

Closest aviation weather report (METAR) to Health One Mercy Hospital Heliport

Closest report is Anoka County-Blaine (Janes Field) Airport, 7.1 nm (13.1 km) ESE.

2024/07/25 09:15 (retrieved 20 minutes ago)

KANE 250915Z AUTO 07003KT 4SM BR CLR 14/14 A3022 RMK AO2

Closest aviation forecast (TAF) to Health One Mercy Hospital Heliport

Closest forecast is Minneapolis–Saint Paul International Airport / Wold–Chamberlain Field, 19.2 nm (35.6 km) SSE.

2024/07/25 09:00 Ammendment (retrieved 35 minutes ago)

TAF AMD KMSP 250857Z 2509/2612 11004KT P6SM SKC FM251600 15009KT P6SM FEW050 FM260100 15008KT P6SM SKC